Flight Track Log - Related Links

Times and Time Zones

All times are in EDT time to prevent confusion due to time zone crossing. See the UAL3832 flight status page for this flight to view local times or setup timezone preferences in your user account.

Time Position Orientation Groundspeed Altitude Reporting Facility
EDT Latitude Longitude Course Direction KTS MPH feet Rate Location/Type
Wed 02:00:43 PM 40.6667 -74.1833 276° West 160 184 1,300  Level New York TRACON
Wed 02:01:43 PM 40.6167 -74.2167 207° Southwest 222 255 2,200 1,700 Climbing New York TRACON
Wed 02:02:43 PM 40.6333 -74.3000 285° West 240 276 4,700 2,300 Climbing New York TRACON
Wed 02:03:43 PM 40.6333 -74.3833 270° West 250 288 6,800 2,150 Climbing New York TRACON
Wed 02:04:00 PM 40.7437 -74.6298 277° West  Level FlightAware Approximate
Wed 02:04:43 PM 40.6333 -74.4667 270° West 249 287 9,000  Level New York TRACON
Wed 02:05:00 PM 40.7539 -74.7504 276° West  Level FlightAware Approximate
Wed 02:05:37 PM 40.6667 -74.5333 303° West 291 335 10,400  Level New York TRACON
Wed 02:06:00 PM 40.7632 -74.8711 276° West  Level FlightAware Approximate
Wed 02:06:37 PM 40.7500 -74.5667 343° North 295 339 12,200  Level New York TRACON
Wed 02:07:37 PM 40.8333 -74.6000 343° North 299 344 13,700 1,250 Climbing New York TRACON
Wed 02:08:37 PM 40.9000 -74.6500 330° Northwest 311 358 14,700 1,034 Climbing New York TRACON
Wed 02:09:04 PM 40.9278 -74.6875 314° West 319 367 15,200 886 Climbing New York Center
Wed 02:10:05 PM 40.9203 -74.7914 265° West 339 390 16,000 857 Climbing New York Center
Wed 02:11:03 PM 40.8856 -74.8936 246° West 331 381 16,900 966 Climbing New York Center
Wed 02:12:03 PM 40.8461 -75.0036 245° Southwest 336 387 17,900 992 Climbing New York Center
Wed 02:13:04 PM 40.8042 -75.1300 246° West 336 387 18,900 934 Climbing New York Center
Wed 02:14:05 PM 40.7872 -75.2439 259° West 343 395 19,800 908 Climbing New York Center
Wed 02:15:03 PM 40.7656 -75.3742 258° West 354 407 20,700 908 Climbing New York Center
Wed 02:16:04 PM 40.7256 -75.4944 246° West 360 414 21,600 893 Climbing New York Center
Wed 02:17:04 PM 40.6811 -75.6147 244° Southwest 367 422 22,500 893 Climbing New York Center
Wed 02:18:05 PM 40.6342 -75.7400 244° Southwest 373 429 23,400 1,059 Climbing New York Center
Wed 02:19:03 PM 40.5872 -75.8594 243° Southwest 373 429 24,600 1,220 Climbing New York Center
Wed 02:20:03 PM 40.5336 -75.9922 242° Southwest 378 435 25,800 1,140 Climbing New York Center
Wed 02:21:04 PM 40.4886 -76.1117 244° Southwest 378 435 26,900 1,131 Climbing New York Center
Wed 02:22:05 PM 40.4458 -76.2281 244° Southwest 373 429 28,100 1,140 Climbing New York Center
Wed 02:23:05 PM 40.4031 -76.3394 243° Southwest 360 414 29,200 1,119 Climbing New York Center
Wed 02:24:03 PM 40.3583 -76.4503 242° Southwest 354 407 30,300 1,169 Climbing New York Center
Wed 02:25:03 PM 40.3175 -76.5583 244° Southwest 349 402 31,500 1,091 Climbing New York Center
Wed 02:26:04 PM 40.2728 -76.6636 241° Southwest 344 396 32,500 984 Climbing New York Center
Wed 02:27:05 PM 40.2297 -76.7714 242° Southwest 338 389 33,500 744 Climbing New York Center
Wed 02:28:05 PM 40.1889 -76.8792 244° Southwest 338 389 34,000 807 Climbing New York Center
Wed 02:29:04 PM 40.1436 -76.9867 241° Southwest 338 389 35,100 1,000 Climbing New York Center
Wed 02:30:05 PM 40.1053 -77.0783 241° Southwest 338 389 36,000 446 Climbing New York Center
Wed 02:31:05 PM 40.0622 -77.1828 242° Southwest 338 389 36,000  Level New York Center
Wed 02:32:06 PM 40.0186 -77.2928 243° Southwest 338 389 36,000  Level New York Center
Wed 02:33:03 PM 39.9728 -77.4078 243° Southwest 344 396 36,000  Level New York Center
Wed 02:34:50 PM 39.9625 -77.6386 267° West 352 405 36,000  Level Cleveland Center
Wed 02:35:50 PM 39.9678 -77.7711 273° West 363 418 36,000  Level Cleveland Center
Wed 02:36:50 PM 39.9708 -77.9011 272° West 363 418 36,000  Level Cleveland Center
Wed 02:37:50 PM 39.9739 -78.0283 272° West 363 418 36,000  Level Cleveland Center
Wed 02:38:50 PM 39.9786 -78.1556 273° West 363 418 36,000  Level Cleveland Center
Wed 02:39:50 PM 39.9775 -78.2939 269° West 358 412 36,000  Level Cleveland Center
Wed 02:40:50 PM 39.9819 -78.4236 273° West 363 418 36,000  Level Cleveland Center
Wed 02:41:50 PM 39.9844 -78.5592 271° West 363 418 36,000  Level Cleveland Center
Wed 02:42:50 PM 39.9867 -78.6892 271° West 363 418 36,000  Level Cleveland Center
Wed 02:43:50 PM 39.9911 -78.8189 273° West 363 418 36,000  Level Cleveland Center
Wed 02:44:50 PM 39.9950 -78.9517 272° West 368 423 36,000  Level Cleveland Center
Wed 02:45:51 PM 39.9989 -79.0764 272° West 374 430 36,000  Level Cleveland Center
Wed 02:46:50 PM 40.0025 -79.2089 272° West 374 430 36,000  Level Cleveland Center
Wed 02:47:50 PM 40.0042 -79.3392 271° West 364 419 36,000  Level Cleveland Center
Wed 02:48:50 PM 40.0075 -79.4664 272° West 359 413 36,000  Level Cleveland Center
Wed 02:49:50 PM 40.0086 -79.5911 271° West 359 413 36,000  Level Cleveland Center
Wed 02:50:50 PM 40.0097 -79.7158 271° West 352 405 36,000  Level Cleveland Center
Wed 02:51:50 PM 40.0125 -79.8403 272° West 347 399 36,000  Level Cleveland Center
Wed 02:52:50 PM 40.0114 -79.9733 269° West 347 399 36,000  Level Cleveland Center
Wed 02:53:50 PM 40.0139 -80.0978 272° West 347 399 36,000  Level Cleveland Center
Wed 02:54:50 PM 40.0167 -80.2200 272° West 342 394 36,000  Level Cleveland Center
Wed 02:55:51 PM 40.0169 -80.3444 270° West 347 399 36,000  Level Cleveland Center
Wed 02:56:50 PM 40.0192 -80.4719 271° West 347 399 36,000  Level Cleveland Center
Wed 02:57:50 PM 40.0192 -80.5994 270° West 347 399 36,000  Level Cleveland Center
Wed 02:58:50 PM 40.0211 -80.7322 271° West 347 399 36,000  Level Cleveland Center
Wed 02:59:50 PM 40.0208 -80.8622 270° West 352 405 36,000  Level Cleveland Center
Wed 03:02:17 PM 40.0117 -81.1736 268° West 359 413 36,000  Level Indianapolis Center
Wed 03:03:19 PM 40.0092 -81.2975 269° West 343 395 36,000  Level Indianapolis Center
Wed 03:04:21 PM 40.0078 -81.4197 269° West 335 386 36,000  Level Indianapolis Center
Wed 03:05:23 PM 40.0047 -81.5425 268° West 336 387 36,000  Level Indianapolis Center
Wed 03:06:24 PM 40.0025 -81.6675 269° West 339 390 36,000  Level Indianapolis Center
Wed 03:07:26 PM 39.9992 -81.7958 268° West 346 398 36,000  Level Indianapolis Center
Wed 03:08:29 PM 39.9975 -81.9439 269° West 347 399 36,000  Level Indianapolis Center
Wed 03:09:30 PM 39.9933 -82.0714 268° West 348 400 36,000  Level Indianapolis Center
Wed 03:10:32 PM 39.9892 -82.1994 268° West 350 403 36,000  Level Indianapolis Center
Wed 03:11:34 PM 39.9875 -82.3286 269° West 352 405 36,000  Level Indianapolis Center
Wed 03:12:36 PM 39.9833 -82.4553 268° West 350 403 36,000  Level Indianapolis Center
Wed 03:13:38 PM 39.9803 -82.5792 268° West 342 394 36,000  Level Indianapolis Center
Wed 03:14:40 PM 39.9761 -82.7014 267° West 336 387 36,000  Level Indianapolis Center
Wed 03:15:42 PM 39.9728 -82.8261 268° West 340 391 36,000  Level Indianapolis Center
Wed 03:16:44 PM 39.9681 -82.9719 268° West 343 395 36,000  Level Indianapolis Center
Wed 03:17:46 PM 39.9650 -83.0975 268° West 346 398 36,000  Level Indianapolis Center
Wed 03:18:48 PM 39.9625 -83.2236 269° West 346 398 36,000  Level Indianapolis Center
Wed 03:19:50 PM 39.9583 -83.3506 268° West 350 403 36,000 -48 Level Indianapolis Center
Wed 03:20:52 PM 39.9539 -83.4761 267° West 349 402 35,900  Descending Indianapolis Center
Wed 03:21:54 PM 39.9472 -83.6181 267° West 339 390 36,000 48 Climbing Indianapolis Center
Wed 03:22:56 PM 39.9436 -83.7400 268° West 336 387 36,000  Level Indianapolis Center
Wed 03:23:58 PM 39.9389 -83.8631 267° West 340 391 36,000  Level Indianapolis Center
Wed 03:25:00 PM 39.9347 -83.9856 267° West 337 388 36,000  Level Indianapolis Center
Wed 03:26:02 PM 39.9294 -84.1083 267° West 336 387 36,000  Level Indianapolis Center
Wed 03:27:04 PM 39.9244 -84.2333 267° West 343 395 36,000  Level Indianapolis Center
Wed 03:28:05 PM 39.9181 -84.3808 267° West 347 399 36,000  Level Indianapolis Center
Wed 03:29:07 PM 39.9128 -84.5058 267° West 343 395 36,000  Level Indianapolis Center
Wed 03:30:09 PM 39.9064 -84.6300 266° West 341 392 36,000  Level Indianapolis Center
Wed 03:31:11 PM 39.9000 -84.7528 266° West 338 389 36,000  Level Indianapolis Center
Wed 03:32:13 PM 39.8953 -84.8744 267° West 334 384 36,000  Level Indianapolis Center
Wed 03:33:15 PM 39.8869 -85.0108 265° West 338 389 36,000  Level Indianapolis Center
Wed 03:34:17 PM 39.8819 -85.1339 267° West 339 390 36,000  Level Indianapolis Center
Wed 03:35:19 PM 39.8764 -85.2558 267° West 336 387 36,000  Level Indianapolis Center
Wed 03:36:21 PM 39.8697 -85.3756 266° West 332 382 36,000  Level Indianapolis Center
Wed 03:37:23 PM 39.8644 -85.4964 267° West 332 382 36,000  Level Indianapolis Center
Wed 03:38:25 PM 39.8572 -85.6156 266° West 331 381 36,000  Level Indianapolis Center
Wed 03:39:27 PM 39.8500 -85.7567 266° West 333 383 36,000  Level Indianapolis Center
Wed 03:40:29 PM 39.8431 -85.8786 266° West 336 387 36,000  Level Indianapolis Center
Wed 03:41:32 PM 39.8364 -86.0011 266° West 339 390 36,000  Level Indianapolis Center
Wed 03:42:34 PM 39.8292 -86.1250 266° West 343 395 36,000  Level Indianapolis Center
Wed 03:43:36 PM 39.8208 -86.2514 265° West 346 398 36,000  Level Indianapolis Center
Wed 03:44:38 PM 39.8100 -86.3864 264° West 338 389 36,000  Level Indianapolis Center
Wed 03:45:40 PM 39.7831 -86.4978 253° West 329 379 36,000  Level Indianapolis Center
Wed 03:46:42 PM 39.7556 -86.6103 252° West 326 375 36,000  Level Indianapolis Center
Wed 03:47:44 PM 39.7278 -86.7203 252° West 322 371 36,000  Level Indianapolis Center
Wed 03:48:46 PM 39.7003 -86.8342 253° West 328 377 36,000  Level Indianapolis Center
Wed 03:49:48 PM 39.6661 -86.9689 252° West 333 383 36,000  Level Indianapolis Center
Wed 03:50:50 PM 39.6378 -87.0831 252° West 332 382 36,000  Level Indianapolis Center
Wed 03:51:52 PM 39.6092 -87.1942 252° West 325 374 36,000  Level Indianapolis Center
Wed 03:52:54 PM 39.5819 -87.3044 252° West 322 371 36,000 -290 Level Indianapolis Center
Wed 03:53:56 PM 39.5542 -87.4122 252° West 313 360 35,400 -1,065 Descending Indianapolis Center
Wed 03:54:58 PM 39.5264 -87.5236 252° West 322 371 33,800 -1,694 Descending Indianapolis Center
Wed 03:56:00 PM 39.4922 -87.6578 252° West 334 384 31,900 -1,742 Descending Indianapolis Center
Wed 03:57:02 PM 39.4619 -87.7756 252° West 343 395 30,200 -1,645 Descending Indianapolis Center
Wed 03:58:04 PM 39.4317 -87.8906 251° West 338 389 28,500 -1,364 Descending Indianapolis Center
Wed 03:58:30 PM 39.4217 -87.9297 252° West 338 389 28,200 -345 Descending Kansas City Center
Wed 03:59:31 PM 39.3914 -88.0461 251° West 340 391 28,000 -98 Descending Kansas City Center
Wed 04:00:32 PM 39.3606 -88.1619 251° West 341 392 28,000  Level Kansas City Center
Wed 04:01:36 PM 39.3297 -88.2769 251° West 340 391 28,000  Level Kansas City Center
Wed 04:02:36 PM 39.2944 -88.4119 251° West 332 382 28,000 -435 Level Kansas City Center
Wed 04:03:40 PM 39.2639 -88.5267 251° West 335 386 27,100 -1,248 Descending Kansas City Center
Wed 04:04:41 PM 39.2353 -88.6306 250° West 337 388 25,400 -1,789 Descending Kansas City Center
Wed 04:06:21 PM 39.1853 -88.8183 251° West 326 375 22,300 -1,984 Descending Indianapolis Center
Wed 04:06:45 PM 39.1703 -88.8733 251° West 321 369 21,300 -2,118 Descending Kansas City Center
Wed 04:07:46 PM 39.1406 -88.9897 252° West 320 368 19,300 -1,680 Descending Kansas City Center
Wed 04:08:50 PM 39.1114 -89.0958 251° West 316 364 17,800 -1,619 Descending Kansas City Center
Wed 04:09:52 PM 39.0825 -89.2050 251° West 323 372 15,900 -2,000 Descending Kansas City Center
Wed 04:10:17 PM 39.0711 -89.2061 184° South 342 394 14,900 -2,182 Descending FAA TRACON SMA TRACON (SMA)
Wed 04:10:36 PM 39.0639 -89.2422 256° West 341 392 14,300 -1,950 Descending FAA TRACON SMA TRACON (SMA)
Wed 04:10:57 PM 39.0525 -89.2864 252° West 338 389 13,600 -1,756 Descending FAA TRACON SMA TRACON (SMA)
Wed 04:11:17 PM 39.0447 -89.3225 255° West 339 390 13,100 -1,650 Descending FAA TRACON SMA TRACON (SMA)
Wed 04:11:37 PM 39.0344 -89.3575 249° West 340 391 12,500 -2,000 Descending FAA TRACON SMA TRACON (SMA)
Wed 04:11:56 PM 39.0225 -89.4019 251° West 341 392 11,800 -1,950 Descending FAA TRACON SMA TRACON (SMA)
Wed 04:12:17 PM 39.0169 -89.4381 259° West 337 388 11,200 -1,171 Descending FAA TRACON SMA TRACON (SMA)
Wed 04:12:37 PM 39.0078 -89.4722 251° West 332 382 11,000 -450 Descending FAA TRACON SMA TRACON (SMA)
Wed 04:12:57 PM 38.9969 -89.5156 252° West 330 380 10,900 -150 Descending FAA TRACON SMA TRACON (SMA)
Wed 04:13:17 PM 38.9883 -89.5506 252° West 332 382 10,900 154 Level FAA TRACON SMA TRACON (SMA)
Wed 04:13:36 PM 38.9722 -89.5786 234° Southwest 322 371 11,000 -439 Climbing FAA TRACON SMA TRACON (SMA)
Wed 04:13:58 PM 38.9481 -89.6064 222° Southwest 311 358 10,600 -1,171 Descending FAA TRACON SMA TRACON (SMA)
Wed 04:14:17 PM 38.9306 -89.6275 223° Southwest 293 337 10,200 -1,385 Descending FAA TRACON SMA TRACON (SMA)
Wed 04:14:37 PM 38.9142 -89.6489 225° Southwest 278 320 9,700 -1,950 Descending FAA TRACON SMA TRACON (SMA)
Wed 04:14:57 PM 38.8922 -89.6742 222° Southwest 275 316 8,900 -2,100 Descending FAA TRACON SMA TRACON (SMA)
Wed 04:15:17 PM 38.8750 -89.6947 223° Southwest 272 313 8,300 -1,800 Descending FAA TRACON SMA TRACON (SMA)
Wed 04:15:37 PM 38.8592 -89.7150 225° Southwest 269 310 7,700 -1,800 Descending FAA TRACON SMA TRACON (SMA)
Wed 04:15:57 PM 38.8386 -89.7403 224° Southwest 268 308 7,100 -1,050 Descending FAA TRACON SMA TRACON (SMA)
Wed 04:16:17 PM 38.8231 -89.7608 226° Southwest 264 304 7,000 -300 Descending FAA TRACON SMA TRACON (SMA)
Wed 04:16:37 PM 38.8078 -89.7808 226° Southwest 259 298 6,900  Descending FAA TRACON SMA TRACON (SMA)
Wed 04:16:56 PM 38.7886 -89.8058 225° Southwest 258 297 7,000 146 Climbing FAA TRACON SMA TRACON (SMA)
Wed 04:17:18 PM 38.7719 -89.8261 223° Southwest 260 299 7,000  Level FAA TRACON SMA TRACON (SMA)
Wed 04:17:37 PM 38.7561 -89.8464 225° Southwest 263 303 7,000 -154 Level FAA TRACON SMA TRACON (SMA)
Wed 04:17:57 PM 38.7364 -89.8711 224° Southwest 260 299 6,900 -146 Descending FAA TRACON SMA TRACON (SMA)
Wed 04:18:18 PM 38.7200 -89.8914 224° Southwest 261 300 6,900 -439 Level FAA TRACON SMA TRACON (SMA)
Wed 04:18:38 PM 38.7031 -89.9114 223° Southwest 263 303 6,600 -1,350 Descending FAA TRACON SMA TRACON (SMA)
Wed 04:18:58 PM 38.6847 -89.9364 227° Southwest 259 298 6,000 -1,538 Descending FAA TRACON SMA TRACON (SMA)
Wed 04:19:17 PM 38.6697 -89.9561 226° Southwest 254 292 5,600 -1,350 Descending FAA TRACON SMA TRACON (SMA)
Wed 04:19:38 PM 38.6542 -89.9761 225° Southwest 255 293 5,100 -878 Descending FAA TRACON SMA TRACON (SMA)
Wed 04:19:58 PM 38.6367 -89.9997 227° Southwest 245 282 5,000 -300 Descending FAA TRACON SMA TRACON (SMA)
Wed 04:20:18 PM 38.6244 -90.0178 229° Southwest 225 259 4,900 -154 Descending FAA TRACON SMA TRACON (SMA)
Wed 04:20:37 PM 38.6208 -90.0375 257° West 205 236 4,900 -769 Level FAA TRACON SMA TRACON (SMA)
Wed 04:20:57 PM 38.6222 -90.0608 274° West 174 200 4,400 -900 Descending FAA TRACON SMA TRACON (SMA)
Wed 04:21:17 PM 38.6303 -90.0778 301° West 177 204 4,300 -300 Descending FAA TRACON SMA TRACON (SMA)
Wed 04:21:37 PM 38.6392 -90.0933 306° West 178 205 4,200 -600 Descending FAA TRACON SMA TRACON (SMA)
Wed 04:21:57 PM 38.6500 -90.1133 305° West 179 206 3,900 -900 Descending FAA TRACON SMA TRACON (SMA)
Wed 04:22:17 PM 38.6578 -90.1303 300° West 177 204 3,600 -900 Descending FAA TRACON SMA TRACON (SMA)
Wed 04:22:37 PM 38.6658 -90.1469 302° West 178 205 3,300 -1,050 Descending FAA TRACON SMA TRACON (SMA)
Wed 04:22:57 PM 38.6761 -90.1672 303° West 179 206 2,900 -1,024 Descending FAA TRACON SMA TRACON (SMA)
Wed 04:23:18 PM 38.6839 -90.1836 301° West 176 203 2,600 -1,024 Descending FAA TRACON SMA TRACON (SMA)
Wed 04:23:38 PM 38.6911 -90.1983 302° West 165 190 2,200 -1,050 Descending FAA TRACON SMA TRACON (SMA)
Wed 04:23:58 PM 38.6992 -90.2147 302° West 142 163 1,900 -769 Descending FAA TRACON SMA TRACON (SMA)
Wed 04:24:17 PM 38.7053 -90.2267 303° West 133 153 1,700 -632 Descending FAA TRACON SMA TRACON (SMA)

Login

Don't have an account? Register now (free) for customized features, flight alerts, and more!